sensor_id;sensor_type;location;lat;lon;timestamp;pressure;altitude;pressure_sealevel;temperature;humidity
29045;BME280;16133;49.486;12.176;2023-02-21T00:01:50;97733.41;;;4.65;100.00
29045;BME280;16133;49.486;12.176;2023-02-21T00:04:34;97732.19;;;4.69;100.00
29045;BME280;16133;49.486;12.176;2023-02-21T00:07:18;97731.50;;;4.76;100.00
29045;BME280;16133;49.486;12.176;2023-02-21T00:10:03;97731.06;;;4.71;100.00
29045;BME280;16133;49.486;12.176;2023-02-21T00:12:48;97723.22;;;4.81;100.00
29045;BME280;16133;49.486;12.176;2023-02-21T00:15:31;97724.31;;;4.88;100.00
29045;BME280;16133;49.486;12.176;2023-02-21T00:18:15;97725.59;;;4.94;100.00
29045;BME280;16133;49.486;12.176;2023-02-21T00:20:59;97735.44;;;5.20;100.00
29045;BME280;16133;49.486;12.176;2023-02-21T00:23:43;97730.72;;;5.34;100.00
29045;BME280;16133;49.486;12.176;2023-02-21T00:26:27;97724.06;;;5.39;100.00
29045;BME280;16133;49.486;12.176;2023-02-21T00:29:11;97725.16;;;5.37;100.00
29045;BME280;16133;49.486;12.176;2023-02-21T00:31:55;97710.31;;;5.64;100.00
29045;BME280;16133;49.486;12.176;2023-02-21T00:34:39;97706.72;;;5.65;100.00
29045;BME280;16133;49.486;12.176;2023-02-21T00:37:23;97708.53;;;5.46;100.00
29045;BME280;16133;49.486;12.176;2023-02-21T00:40:10;97711.84;;;5.67;100.00
29045;BME280;16133;49.486;12.176;2023-02-21T00:42:54;97714.63;;;5.56;100.00
29045;BME280;16133;49.486;12.176;2023-02-21T00:45:38;97726.28;;;5.53;100.00
29045;BME280;16133;49.486;12.176;2023-02-21T00:48:22;97728.38;;;5.40;100.00
29045;BME280;16133;49.486;12.176;2023-02-21T00:51:07;97724.06;;;5.39;100.00
29045;BME280;16133;49.486;12.176;2023-02-21T00:53:51;97720.47;;;5.40;100.00
29045;BME280;16133;49.486;12.176;2023-02-21T00:56:34;97723.53;;;5.36;100.00
29045;BME280;16133;49.486;12.176;2023-02-21T00:59:18;97708.44;;;5.28;100.00
29045;BME280;16133;49.486;12.176;2023-02-21T01:02:02;97708.56;;;5.26;100.00
29045;BME280;16133;49.486;12.176;2023-02-21T01:04:46;97698.19;;;5.35;100.00
29045;BME280;16133;49.486;12.176;2023-02-21T01:07:30;97703.88;;;5.20;100.00
29045;BME280;16133;49.486;12.176;2023-02-21T01:10:14;97701.25;;;5.20;100.00
29045;BME280;16133;49.486;12.176;2023-02-21T01:12:59;97710.38;;;5.16;100.00
29045;BME280;16133;49.486;12.176;2023-02-21T01:15:43;97698.59;;;5.11;100.00
29045;BME280;16133;49.486;12.176;2023-02-21T01:18:27;97700.53;;;4.99;100.00
29045;BME280;16133;49.486;12.176;2023-02-21T01:21:12;97708.59;;;5.17;100.00
29045;BME280;16133;49.486;12.176;2023-02-21T01:23:57;97707.31;;;5.11;100.00
29045;BME280;16133;49.486;12.176;2023-02-21T01:26:40;97704.41;;;5.14;100.00
29045;BME280;16133;49.486;12.176;2023-02-21T01:29:24;97693.06;;;5.04;100.00
29045;BME280;16133;49.486;12.176;2023-02-21T01:32:08;97686.84;;;4.86;100.00
29045;BME280;16133;49.486;12.176;2023-02-21T01:34:52;97679.34;;;4.62;100.00
29045;BME280;16133;49.486;12.176;2023-02-21T01:37:39;97689.38;;;4.38;100.00
29045;BME280;16133;49.486;12.176;2023-02-21T01:40:23;97681.59;;;4.17;100.00
29045;BME280;16133;49.486;12.176;2023-02-21T01:43:18;97677.78;;;4.01;100.00
29045;BME280;16133;49.486;12.176;2023-02-21T01:46:03;97675.06;;;3.81;100.00
29045;BME280;16133;49.486;12.176;2023-02-21T01:48:48;97681.88;;;3.63;100.00
29045;BME280;16133;49.486;12.176;2023-02-21T01:51:37;97665.19;;;3.44;100.00
29045;BME280;16133;49.486;12.176;2023-02-21T01:54:24;97682.19;;;3.49;100.00
29045;BME280;16133;49.486;12.176;2023-02-21T01:57:09;97648.31;;;3.36;100.00
29045;BME280;16133;49.486;12.176;2023-02-21T01:59:55;97665.03;;;3.66;100.00
29045;BME280;16133;49.486;12.176;2023-02-21T02:02:50;97653.16;;;3.62;100.00
29045;BME280;16133;49.486;12.176;2023-02-21T02:05:37;97662.50;;;3.55;100.00
29045;BME280;16133;49.486;12.176;2023-02-21T02:08:26;97662.28;;;3.37;100.00
29045;BME280;16133;49.486;12.176;2023-02-21T02:32:23;97662.53;;;3.13;100.00
29045;BME280;16133;49.486;12.176;2023-02-21T02:35:03;97657.53;;;3.10;100.00
29045;BME280;16133;49.486;12.176;2023-02-21T02:48:09;97644.50;;;2.67;100.00
29045;BME280;16133;49.486;12.176;2023-02-21T02:50:38;97640.91;;;2.68;100.00
29045;BME280;16133;49.486;12.176;2023-02-21T02:53:06;97633.03;;;2.68;100.00
29045;BME280;16133;49.486;12.176;2023-02-21T02:55:53;97637.69;;;2.76;100.00
29045;BME280;16133;49.486;12.176;2023-02-21T03:14:51;97635.81;;;3.80;100.00
29045;BME280;16133;49.486;12.176;2023-02-21T03:17:25;97631.63;;;3.98;100.00
29045;BME280;16133;49.486;12.176;2023-02-21T03:19:52;97634.16;;;4.09;100.00
29045;BME280;16133;49.486;12.176;2023-02-21T03:22:21;97637.78;;;4.27;100.00
29045;BME280;16133;49.486;12.176;2023-02-21T03:24:48;97632.84;;;4.44;100.00
29045;BME280;16133;49.486;12.176;2023-02-21T03:27:17;97642.81;;;4.69;100.00
29045;BME280;16133;49.486;12.176;2023-02-21T03:29:44;97639.66;;;4.85;100.00
29045;BME280;16133;49.486;12.176;2023-02-21T03:32:23;97651.00;;;5.04;100.00
29045;BME280;16133;49.486;12.176;2023-02-21T03:34:50;97643.47;;;5.38;100.00
29045;BME280;16133;49.486;12.176;2023-02-21T03:37:46;97656.66;;;5.75;100.00
29045;BME280;16133;49.486;12.176;2023-02-21T03:40:14;97662.75;;;5.75;100.00
29045;BME280;16133;49.486;12.176;2023-02-21T03:42:39;97657.72;;;6.01;100.00
29045;BME280;16133;49.486;12.176;2023-02-21T03:45:05;97661.63;;;5.97;100.00
29045;BME280;16133;49.486;12.176;2023-02-21T03:47:30;97653.56;;;5.99;100.00
29045;BME280;16133;49.486;12.176;2023-02-21T03:49:56;97648.84;;;6.02;100.00
29045;BME280;16133;49.486;12.176;2023-02-21T03:52:21;97653.84;;;6.05;100.00
29045;BME280;16133;49.486;12.176;2023-02-21T03:54:47;97651.19;;;6.05;100.00
29045;BME280;16133;49.486;12.176;2023-02-21T03:57:13;97645.34;;;6.11;100.00
29045;BME280;16133;49.486;12.176;2023-02-21T03:59:38;97644.66;;;6.09;100.00
29045;BME280;16133;49.486;12.176;2023-02-21T04:02:04;97636.47;;;6.12;100.00
29045;BME280;16133;49.486;12.176;2023-02-21T04:04:29;97652.09;;;6.14;100.00
29045;BME280;16133;49.486;12.176;2023-02-21T04:06:54;97648.06;;;6.19;100.00
29045;BME280;16133;49.486;12.176;2023-02-21T04:09:20;97645.63;;;6.36;100.00
29045;BME280;16133;49.486;12.176;2023-02-21T04:11:45;97648.28;;;6.36;100.00
29045;BME280;16133;49.486;12.176;2023-02-21T04:14:12;97646.69;;;6.43;100.00
29045;BME280;16133;49.486;12.176;2023-02-21T04:16:38;97639.38;;;6.37;100.00
29045;BME280;16133;49.486;12.176;2023-02-21T04:19:03;97639.75;;;6.42;100.00
29045;BME280;16133;49.486;12.176;2023-02-21T04:21:29;97640.47;;;6.44;100.00
29045;BME280;16133;49.486;12.176;2023-02-21T04:23:54;97633.88;;;6.48;100.00
29045;BME280;16133;49.486;12.176;2023-02-21T04:26:20;97631.41;;;6.46;100.00
29045;BME280;16133;49.486;12.176;2023-02-21T04:28:47;97632.00;;;6.40;100.00
29045;BME280;16133;49.486;12.176;2023-02-21T04:31:14;97637.56;;;6.37;100.00
29045;BME280;16133;49.486;12.176;2023-02-21T04:33:39;97643.53;;;6.39;100.00
29045;BME280;16133;49.486;12.176;2023-02-21T04:36:05;97643.47;;;6.49;100.00
29045;BME280;16133;49.486;12.176;2023-02-21T04:38:30;97645.13;;;6.50;100.00
29045;BME280;16133;49.486;12.176;2023-02-21T04:40:55;97638.28;;;6.57;100.00
29045;BME280;16133;49.486;12.176;2023-02-21T04:43:21;97641.06;;;6.55;100.00
29045;BME280;16133;49.486;12.176;2023-02-21T04:45:46;97643.53;;;6.57;100.00
29045;BME280;16133;49.486;12.176;2023-02-21T04:48:12;97636.56;;;6.65;100.00
29045;BME280;16133;49.486;12.176;2023-02-21T04:50:37;97631.06;;;6.59;100.00
29045;BME280;16133;49.486;12.176;2023-02-21T04:53:02;97634.66;;;6.58;100.00
29045;BME280;16133;49.486;12.176;2023-02-21T04:55:28;97629.69;;;6.55;100.00
29045;BME280;16133;49.486;12.176;2023-02-21T04:57:53;97634.97;;;6.55;100.00
29045;BME280;16133;49.486;12.176;2023-02-21T05:00:18;97633.31;;;6.54;100.00
29045;BME280;16133;49.486;12.176;2023-02-21T05:02:44;97639.56;;;6.53;100.00
29045;BME280;16133;49.486;12.176;2023-02-21T05:05:10;97630.81;;;6.52;100.00
29045;BME280;16133;49.486;12.176;2023-02-21T05:07:36;97633.31;;;6.54;100.00
29045;BME280;16133;49.486;12.176;2023-02-21T05:10:02;97631.94;;;6.50;100.00
29045;BME280;16133;49.486;12.176;2023-02-21T05:12:30;97632.25;;;6.47;100.00
29045;BME280;16133;49.486;12.176;2023-02-21T05:14:55;97641.13;;;6.46;100.00
29045;BME280;16133;49.486;12.176;2023-02-21T05:17:21;97639.63;;;6.43;100.00
29045;BME280;16133;49.486;12.176;2023-02-21T05:19:46;97637.44;;;6.39;100.00
29045;BME280;16133;49.486;12.176;2023-02-21T05:22:11;97645.91;;;6.33;100.00
29045;BME280;16133;49.486;12.176;2023-02-21T05:24:40;97647.19;;;6.29;100.00
29045;BME280;16133;49.486;12.176;2023-02-21T05:27:07;97638.50;;;6.18;100.00
29045;BME280;16133;49.486;12.176;2023-02-21T05:29:35;97637.88;;;6.07;100.00
29045;BME280;16133;49.486;12.176;2023-02-21T05:32:01;97646.50;;;5.99;100.00
29045;BME280;16133;49.486;12.176;2023-02-21T05:34:26;97646.38;;;5.91;100.00
29045;BME280;16133;49.486;12.176;2023-02-21T05:36:51;97644.19;;;5.87;100.00
29045;BME280;16133;49.486;12.176;2023-02-21T05:39:17;97648.34;;;5.79;100.00
29045;BME280;16133;49.486;12.176;2023-02-21T05:41:51;97648.94;;;5.73;100.00
29045;BME280;16133;49.486;12.176;2023-02-21T05:44:17;97650.06;;;5.71;100.00
29045;BME280;16133;49.486;12.176;2023-02-21T05:46:42;97649.09;;;5.62;100.00
29045;BME280;16133;49.486;12.176;2023-02-21T05:49:10;97650.09;;;5.52;100.00
29045;BME280;16133;49.486;12.176;2023-02-21T05:51:41;97652.44;;;5.45;100.00
29045;BME280;16133;49.486;12.176;2023-02-21T05:54:08;97650.81;;;5.44;100.00
29045;BME280;16133;49.486;12.176;2023-02-21T05:56:39;97651.78;;;5.43;100.00
29045;BME280;16133;49.486;12.176;2023-02-21T05:59:05;97658.13;;;5.41;100.00
29045;BME280;16133;49.486;12.176;2023-02-21T06:04:10;97653.88;;;5.40;100.00
29045;BME280;16133;49.486;12.176;2023-02-21T06:06:36;97657.75;;;5.36;100.00
29045;BME280;16133;49.486;12.176;2023-02-21T06:09:02;97649.44;;;5.30;100.00
29045;BME280;16133;49.486;12.176;2023-02-21T06:11:31;97648.47;;;5.32;100.00
29045;BME280;16133;49.486;12.176;2023-02-21T06:13:58;97654.03;;;5.28;100.00
29045;BME280;16133;49.486;12.176;2023-02-21T06:16:25;97651.66;;;5.25;100.00
29045;BME280;16133;49.486;12.176;2023-02-21T06:18:55;97654.44;;;5.24;100.00
29045;BME280;16133;49.486;12.176;2023-02-21T06:21:21;97654.56;;;5.22;100.00
29045;BME280;16133;49.486;12.176;2023-02-21T06:23:47;97652.22;;;5.19;100.00
29045;BME280;16133;49.486;12.176;2023-02-21T06:26:13;97651.38;;;5.19;100.00
29045;BME280;16133;49.486;12.176;2023-02-21T06:28:39;97654.31;;;5.16;100.00
29045;BME280;16133;49.486;12.176;2023-02-21T06:31:04;97652.66;;;5.05;100.00
29045;BME280;16133;49.486;12.176;2023-02-21T06:33:29;97662.88;;;4.99;100.00
29045;BME280;16133;49.486;12.176;2023-02-21T06:35:55;97657.78;;;4.97;100.00
29045;BME280;16133;49.486;12.176;2023-02-21T06:38:20;97653.34;;;4.98;100.00
29045;BME280;16133;49.486;12.176;2023-02-21T06:40:45;97648.78;;;5.00;100.00
29045;BME280;16133;49.486;12.176;2023-02-21T06:43:11;97650.03;;;5.05;100.00
29045;BME280;16133;49.486;12.176;2023-02-21T06:45:36;97646.00;;;5.11;100.00
29045;BME280;16133;49.486;12.176;2023-02-21T06:48:02;97648.22;;;5.15;100.00
29045;BME280;16133;49.486;12.176;2023-02-21T06:50:27;97648.75;;;5.19;100.00
29045;BME280;16133;49.486;12.176;2023-02-21T06:52:53;97645.59;;;5.25;100.00
29045;BME280;16133;49.486;12.176;2023-02-21T06:55:22;97654.56;;;5.32;100.00
29045;BME280;16133;49.486;12.176;2023-02-21T06:57:48;97659.25;;;5.38;100.00
29045;BME280;16133;49.486;12.176;2023-02-21T07:00:15;97661.06;;;5.47;100.00
29045;BME280;16133;49.486;12.176;2023-02-21T07:02:41;97666.44;;;5.55;100.00
29045;BME280;16133;49.486;12.176;2023-02-21T07:05:07;97670.00;;;5.64;100.00
29045;BME280;16133;49.486;12.176;2023-02-21T07:07:32;97672.75;;;5.72;100.00
29045;BME280;16133;49.486;12.176;2023-02-21T07:09:57;97677.16;;;5.81;100.00
29045;BME280;16133;49.486;12.176;2023-02-21T07:12:23;97681.63;;;5.90;100.00
29045;BME280;16133;49.486;12.176;2023-02-21T07:14:48;97674.38;;;5.92;100.00
29045;BME280;16133;49.486;12.176;2023-02-21T07:17:14;97685.97;;;6.09;100.00
29045;BME280;16133;49.486;12.176;2023-02-21T07:19:39;97690.22;;;6.19;100.00
29045;BME280;16133;49.486;12.176;2023-02-21T07:22:06;97695.97;;;6.33;100.00
29045;BME280;16133;49.486;12.176;2023-02-21T07:24:32;97693.84;;;6.46;100.00
29045;BME280;16133;49.486;12.176;2023-02-21T07:26:57;97695.97;;;6.60;100.00
29045;BME280;16133;49.486;12.176;2023-02-21T07:29:23;97691.72;;;6.77;100.00
29045;BME280;16133;49.486;12.176;2023-02-21T07:31:48;97700.63;;;6.93;100.00
29045;BME280;16133;49.486;12.176;2023-02-21T07:34:14;97693.03;;;7.08;100.00
29045;BME280;16133;49.486;12.176;2023-02-21T07:36:39;97678.63;;;7.20;100.00
29045;BME280;16133;49.486;12.176;2023-02-21T07:39:05;97678.06;;;7.34;100.00
29045;BME280;16133;49.486;12.176;2023-02-21T07:41:30;97688.91;;;7.49;100.00
29045;BME280;16133;49.486;12.176;2023-02-21T07:43:55;97673.78;;;7.59;100.00
29045;BME280;16133;49.486;12.176;2023-02-21T07:46:25;97685.41;;;7.66;100.00
29045;BME280;16133;49.486;12.176;2023-02-21T07:48:51;97690.91;;;7.73;100.00
29045;BME280;16133;49.486;12.176;2023-02-21T07:51:16;97687.81;;;7.77;100.00
29045;BME280;16133;49.486;12.176;2023-02-21T07:53:42;97685.00;;;7.79;100.00
29045;BME280;16133;49.486;12.176;2023-02-21T07:56:07;97685.47;;;7.74;100.00
29045;BME280;16133;49.486;12.176;2023-02-21T07:58:33;97685.41;;;7.66;100.00
29045;BME280;16133;49.486;12.176;2023-02-21T08:01:02;97692.38;;;7.49;100.00
29045;BME280;16133;49.486;12.176;2023-02-21T08:03:28;97704.53;;;7.25;100.00
29045;BME280;16133;49.486;12.176;2023-02-21T08:05:54;97692.41;;;6.96;100.00
29045;BME280;16133;49.486;12.176;2023-02-21T08:08:19;97694.34;;;6.77;100.00
29045;BME280;16133;49.486;12.176;2023-02-21T08:10:45;97696.56;;;6.54;100.00
29045;BME280;16133;49.486;12.176;2023-02-21T08:13:10;97699.97;;;6.37;100.00
29045;BME280;16133;49.486;12.176;2023-02-21T08:15:35;97695.31;;;6.31;100.00
29045;BME280;16133;49.486;12.176;2023-02-21T08:18:01;97698.91;;;6.30;100.00
29045;BME280;16133;49.486;12.176;2023-02-21T08:20:26;97696.69;;;6.35;100.00
29045;BME280;16133;49.486;12.176;2023-02-21T08:22:51;97689.16;;;6.40;100.00
29045;BME280;16133;49.486;12.176;2023-02-21T08:25:17;97709.13;;;6.69;100.00
29045;BME280;16133;49.486;12.176;2023-02-21T08:27:43;97706.19;;;6.90;100.00
29045;BME280;16133;49.486;12.176;2023-02-21T08:30:11;97699.56;;;7.04;100.00
29045;BME280;16133;49.486;12.176;2023-02-21T08:32:38;97709.53;;;7.10;100.00
29045;BME280;16133;49.486;12.176;2023-02-21T08:35:04;97705.81;;;7.03;100.00
29045;BME280;16133;49.486;12.176;2023-02-21T08:37:31;97709.91;;;6.97;100.00
29045;BME280;16133;49.486;12.176;2023-02-21T08:39:58;97710.28;;;7.02;100.00
29045;BME280;16133;49.486;12.176;2023-02-21T08:42:24;97718.81;;;7.32;100.00
29045;BME280;16133;49.486;12.176;2023-02-21T08:44:49;97721.91;;;7.70;100.00
29045;BME280;16133;49.486;12.176;2023-02-21T08:47:15;97708.28;;;8.09;100.00
29045;BME280;16133;49.486;12.176;2023-02-21T08:49:47;97721.22;;;8.38;100.00
29045;BME280;16133;49.486;12.176;2023-02-21T08:52:14;97719.94;;;8.50;100.00
29045;BME280;16133;49.486;12.176;2023-02-21T08:54:40;97713.34;;;8.54;100.00
29045;BME280;16133;49.486;12.176;2023-02-21T08:57:06;97711.00;;;8.43;100.00
29045;BME280;16133;49.486;12.176;2023-02-21T08:59:31;97718.19;;;8.33;100.00
29045;BME280;16133;49.486;12.176;2023-02-21T09:01:58;97718.44;;;8.22;100.00
29045;BME280;16133;49.486;12.176;2023-02-21T09:04:24;97713.09;;;8.13;100.00
29045;BME280;16133;49.486;12.176;2023-02-21T09:06:52;97716.44;;;8.15;100.00
29045;BME280;16133;49.486;12.176;2023-02-21T09:09:17;97712.13;;;8.40;100.00
29045;BME280;16133;49.486;12.176;2023-02-21T09:11:42;97722.34;;;8.69;100.00
29045;BME280;16133;49.486;12.176;2023-02-21T09:14:11;97718.44;;;9.05;100.00
29045;BME280;16133;49.486;12.176;2023-02-21T09:16:37;97723.81;;;9.38;100.00
29045;BME280;16133;49.486;12.176;2023-02-21T09:19:02;97721.81;;;9.64;98.44
29045;BME280;16133;49.486;12.176;2023-02-21T09:21:31;97717.50;;;9.87;95.98
29045;BME280;16133;49.486;12.176;2023-02-21T09:23:56;97724.47;;;9.96;94.05
29045;BME280;16133;49.486;12.176;2023-02-21T09:26:23;97719.97;;;10.21;93.75
29045;BME280;16133;49.486;12.176;2023-02-21T09:28:52;97720.38;;;10.49;92.98
29045;BME280;16133;49.486;12.176;2023-02-21T09:31:18;97717.19;;;10.62;90.79
29045;BME280;16133;49.486;12.176;2023-02-21T09:33:44;97718.53;;;10.58;88.56
29045;BME280;16133;49.486;12.176;2023-02-21T09:36:10;97718.13;;;10.77;87.21
29045;BME280;16133;49.486;12.176;2023-02-21T09:38:36;97719.75;;;10.78;86.69
29045;BME280;16133;49.486;12.176;2023-02-21T09:41:05;97724.16;;;10.93;88.87
29045;BME280;16133;49.486;12.176;2023-02-21T09:43:34;97715.09;;;11.11;83.04
29045;BME280;16133;49.486;12.176;2023-02-21T09:46:04;97721.72;;;11.15;83.94
29045;BME280;16133;49.486;12.176;2023-02-21T09:48:31;97712.00;;;11.30;83.76
29045;BME280;16133;49.486;12.176;2023-02-21T09:50:58;97712.03;;;11.44;81.36
29045;BME280;16133;49.486;12.176;2023-02-21T09:53:29;97717.72;;;11.64;79.90
29045;BME280;16133;49.486;12.176;2023-02-21T09:55:59;97717.63;;;11.80;77.22
29045;BME280;16133;49.486;12.176;2023-02-21T09:58:28;97706.47;;;12.00;75.21
29045;BME280;16133;49.486;12.176;2023-02-21T10:00:57;97706.47;;;11.77;76.55
29045;BME280;16133;49.486;12.176;2023-02-21T10:03:40;97698.56;;;11.91;74.62
29045;BME280;16133;49.486;12.176;2023-02-21T10:17:44;97714.91;;;12.18;74.26
29045;BME280;16133;49.486;12.176;2023-02-21T10:20:25;97715.09;;;12.31;73.56
29045;BME280;16133;49.486;12.176;2023-02-21T10:22:54;97714.28;;;12.45;71.79
29045;BME280;16133;49.486;12.176;2023-02-21T10:25:27;97699.97;;;12.31;73.64
29045;BME280;16133;49.486;12.176;2023-02-21T10:27:54;97698.31;;;12.45;71.59
29045;BME280;16133;49.486;12.176;2023-02-21T10:32:50;97707.13;;;12.45;71.79
29045;BME280;16133;49.486;12.176;2023-02-21T10:35:16;97688.41;;;12.39;72.22
29045;BME280;16133;49.486;12.176;2023-02-21T10:37:50;97698.22;;;12.53;72.39
29045;BME280;16133;49.486;12.176;2023-02-21T10:42:49;97698.97;;;12.18;73.62
29045;BME280;16133;49.486;12.176;2023-02-21T10:45:19;97692.41;;;11.91;74.03
29045;BME280;16133;49.486;12.176;2023-02-21T10:47:58;97681.19;;;11.58;74.81
29045;BME280;16133;49.486;12.176;2023-02-21T10:50:50;97694.41;;;11.66;76.32
29045;BME280;16133;49.486;12.176;2023-02-21T10:53:31;97697.03;;;11.74;75.42
29045;BME280;16133;49.486;12.176;2023-02-21T10:58:58;97689.78;;;12.20;75.26
29045;BME280;16133;49.486;12.176;2023-02-21T11:06:48;97686.31;;;12.49;73.42
29045;BME280;16133;49.486;12.176;2023-02-21T11:14:41;97683.41;;;12.80;71.38
29045;BME280;16133;49.486;12.176;2023-02-21T11:19:54;97682.03;;;12.84;71.18
29045;BME280;16133;49.486;12.176;2023-02-21T11:27:15;97680.06;;;12.92;71.89
29045;BME280;16133;49.486;12.176;2023-02-21T11:29:43;97671.34;;;12.99;71.47
29045;BME280;16133;49.486;12.176;2023-02-21T11:32:18;97672.97;;;13.14;72.21
29045;BME280;16133;49.486;12.176;2023-02-21T11:34:44;97665.94;;;13.28;70.91
29045;BME280;16133;49.486;12.176;2023-02-21T11:37:13;97656.81;;;13.37;69.66
29045;BME280;16133;49.486;12.176;2023-02-21T11:39:39;97646.75;;;13.39;69.92
29045;BME280;16133;49.486;12.176;2023-02-21T11:42:27;97645.72;;;13.61;70.25
29045;BME280;16133;49.486;12.176;2023-02-21T11:45:28;97652.91;;;13.88;69.85
29045;BME280;16133;49.486;12.176;2023-02-21T11:48:03;97646.03;;;14.01;68.50
29045;BME280;16133;49.486;12.176;2023-02-21T11:50:36;97651.50;;;13.93;67.08
29045;BME280;16133;49.486;12.176;2023-02-21T11:56:10;97647.63;;;13.46;69.80
29045;BME280;16133;49.486;12.176;2023-02-21T11:58:54;97648.41;;;13.40;70.77
29045;BME280;16133;49.486;12.176;2023-02-21T12:01:34;97636.94;;;13.18;70.67
29045;BME280;16133;49.486;12.176;2023-02-21T12:04:14;97634.13;;;13.26;71.74
29045;BME280;16133;49.486;12.176;2023-02-21T12:07:07;97637.50;;;13.14;71.54
29045;BME280;16133;49.486;12.176;2023-02-21T12:12:16;97630.75;;;13.39;71.16
29045;BME280;16133;49.486;12.176;2023-02-21T12:37:30;97601.38;;;14.16;67.88
29045;BME280;16133;49.486;12.176;2023-02-21T12:47:57;97581.63;;;13.20;72.07
29045;BME280;16133;49.486;12.176;2023-02-21T12:50:29;97577.72;;;13.44;71.91
29045;BME280;16133;49.486;12.176;2023-02-21T12:55:40;97570.84;;;14.25;69.51
29045;BME280;16133;49.486;12.176;2023-02-21T13:00:52;97563.25;;;14.82;67.00
29045;BME280;16133;49.486;12.176;2023-02-21T13:11:31;97540.66;;;14.31;69.04
29045;BME280;16133;49.486;12.176;2023-02-21T13:13:58;97542.09;;;14.27;69.13
29045;BME280;16133;49.486;12.176;2023-02-21T13:16:24;97535.66;;;14.15;68.82
29045;BME280;16133;49.486;12.176;2023-02-21T13:18:54;97541.81;;;14.09;69.13
29045;BME280;16133;49.486;12.176;2023-02-21T13:24:58;97529.72;;;14.19;69.54
29045;BME280;16133;49.486;12.176;2023-02-21T13:32:39;97523.09;;;14.50;67.77
29045;BME280;16133;49.486;12.176;2023-02-21T13:35:07;97520.22;;;14.51;68.45
29045;BME280;16133;49.486;12.176;2023-02-21T13:37:34;97518.22;;;14.66;69.25
29045;BME280;16133;49.486;12.176;2023-02-21T13:40:25;97504.88;;;14.86;69.55
29045;BME280;16133;49.486;12.176;2023-02-21T13:43:05;97506.94;;;14.97;68.73
29045;BME280;16133;49.486;12.176;2023-02-21T13:45:32;97505.94;;;15.05;68.53
29045;BME280;16133;49.486;12.176;2023-02-21T13:53:23;97485.38;;;15.25;68.23
29045;BME280;16133;49.486;12.176;2023-02-21T13:58:37;97483.72;;;15.17;67.15
29045;BME280;16133;49.486;12.176;2023-02-21T14:03:52;97481.06;;;15.17;67.44
29045;BME280;16133;49.486;12.176;2023-02-21T14:08:59;97476.50;;;15.18;66.60
29045;BME280;16133;49.486;12.176;2023-02-21T14:11:28;97469.31;;;15.25;67.33
29045;BME280;16133;49.486;12.176;2023-02-21T14:13:58;97474.03;;;15.23;67.10
29045;BME280;16133;49.486;12.176;2023-02-21T14:16:36;97475.09;;;15.02;68.06
29045;BME280;16133;49.486;12.176;2023-02-21T14:19:18;97468.91;;;14.89;68.92
29045;BME280;16133;49.486;12.176;2023-02-21T14:22:02;97478.78;;;14.75;69.41
29045;BME280;16133;49.486;12.176;2023-02-21T14:24:35;97475.47;;;14.60;70.46
29045;BME280;16133;49.486;12.176;2023-02-21T14:27:03;97474.63;;;14.46;71.00
29045;BME280;16133;49.486;12.176;2023-02-21T14:29:42;97473.75;;;14.32;71.32
29045;BME280;16133;49.486;12.176;2023-02-21T14:37:37;97478.09;;;13.93;72.10
29045;BME280;16133;49.486;12.176;2023-02-21T14:40:16;97475.59;;;13.84;72.93
29045;BME280;16133;49.486;12.176;2023-02-21T14:48:42;97469.47;;;13.50;73.49
29045;BME280;16133;49.486;12.176;2023-02-21T15:05:13;97458.81;;;13.50;76.87
29045;BME280;16133;49.486;12.176;2023-02-21T15:08:04;97452.88;;;13.48;77.39
29045;BME280;16133;49.486;12.176;2023-02-21T15:10:40;97458.59;;;13.45;77.69
29045;BME280;16133;49.486;12.176;2023-02-21T15:13:06;97439.69;;;13.39;78.24
29045;BME280;16133;49.486;12.176;2023-02-21T15:15:44;97451.19;;;13.40;78.35
29045;BME280;16133;49.486;12.176;2023-02-21T15:18:14;97443.59;;;13.37;78.48
29045;BME280;16133;49.486;12.176;2023-02-21T15:21:21;97445.81;;;13.33;78.99
29045;BME280;16133;49.486;12.176;2023-02-21T15:23:47;97438.00;;;13.32;79.45
29045;BME280;16133;49.486;12.176;2023-02-21T15:28:46;97439.03;;;13.31;79.78
29045;BME280;16133;49.486;12.176;2023-02-21T15:31:12;97428.56;;;13.29;79.95
29045;BME280;16133;49.486;12.176;2023-02-21T15:33:42;97432.66;;;13.25;80.05
29045;BME280;16133;49.486;12.176;2023-02-21T15:36:20;97433.81;;;13.16;80.59
29045;BME280;16133;49.486;12.176;2023-02-21T15:39:20;97427.16;;;13.06;81.14
29045;BME280;16133;49.486;12.176;2023-02-21T15:41:41;97426.50;;;13.04;81.50
29045;BME280;16133;49.486;12.176;2023-02-21T15:46:50;97424.91;;;12.81;81.42
29045;BME280;16133;49.486;12.176;2023-02-21T15:49:21;97415.38;;;12.66;81.73
29045;BME280;16133;49.486;12.176;2023-02-21T15:51:47;97425.22;;;12.44;82.86
29045;BME280;16133;49.486;12.176;2023-02-21T15:56:41;97415.38;;;12.02;84.65
29045;BME280;16133;49.486;12.176;2023-02-21T16:01:36;97416.56;;;11.64;86.89
29045;BME280;16133;49.486;12.176;2023-02-21T16:04:21;97417.84;;;11.53;87.65
29045;BME280;16133;49.486;12.176;2023-02-21T16:06:55;97392.56;;;11.28;88.23
29045;BME280;16133;49.486;12.176;2023-02-21T16:09:22;97414.72;;;11.35;88.75
29045;BME280;16133;49.486;12.176;2023-02-21T16:12:04;97401.56;;;11.27;89.70
29045;BME280;16133;49.486;12.176;2023-02-21T16:14:44;97405.03;;;11.13;90.58
29045;BME280;16133;49.486;12.176;2023-02-21T16:17:34;97406.56;;;10.92;92.18
29045;BME280;16133;49.486;12.176;2023-02-21T16:20:21;97409.66;;;10.67;93.12
29045;BME280;16133;49.486;12.176;2023-02-21T16:22:50;97413.00;;;10.46;95.33
29045;BME280;16133;49.486;12.176;2023-02-21T16:25:35;97413.44;;;10.35;97.65
29045;BME280;16133;49.486;12.176;2023-02-21T16:28:17;97425.03;;;10.34;99.67
29045;BME280;16133;49.486;12.176;2023-02-21T16:30:43;97412.19;;;10.23;100.00